createdAt,value
2024-04-22T00:01:11.412Z,101984.47
2024-04-22T00:03:41.043Z,101979.06
2024-04-22T00:06:08.482Z,101980.84
2024-04-22T00:08:38.004Z,101974.81
2024-04-22T00:11:06.027Z,101960.19
2024-04-22T00:13:36.906Z,101965.25
2024-04-22T00:16:06.757Z,101964.34
2024-04-22T00:18:36.770Z,101952.41
2024-04-22T00:21:03.925Z,101952.56
2024-04-22T00:23:33.444Z,101969.63
2024-04-22T00:26:01.780Z,101953.22
2024-04-22T00:28:31.522Z,101961.09
2024-04-22T00:30:58.453Z,101961.69
2024-04-22T00:33:30.705Z,101956.44
2024-04-22T00:35:58.975Z,101964.00
2024-04-22T00:38:28.660Z,101957.84
2024-04-22T00:40:55.697Z,101962.19
2024-04-22T00:43:25.290Z,101956.13
2024-04-22T00:45:54.725Z,101964.00
2024-04-22T00:48:22.194Z,101955.69
2024-04-22T00:50:55.277Z,101957.47
2024-04-22T00:53:22.877Z,101955.78
2024-04-22T00:55:52.658Z,101960.91
2024-04-22T00:58:20.324Z,101962.63
2024-04-22T01:00:51.771Z,101966.78
2024-04-22T01:03:18.790Z,101958.97
2024-04-22T01:05:48.450Z,101962.41
2024-04-22T01:08:18.371Z,101951.94
2024-04-22T01:10:48.265Z,101958.88
2024-04-22T01:13:15.250Z,101948.53
2024-04-22T01:15:44.831Z,101945.78
2024-04-22T01:18:16.022Z,101948.94
2024-04-22T01:20:45.524Z,101953.06
2024-04-22T01:23:14.867Z,101938.22
2024-04-22T01:25:48.736Z,101943.19
2024-04-22T01:28:15.780Z,101937.03
2024-04-22T01:30:45.291Z,101933.69
2024-04-22T01:33:12.098Z,101927.06
2024-04-22T01:35:41.643Z,101932.84
2024-04-22T01:38:08.564Z,101942.16
2024-04-22T01:40:40.787Z,101925.59
2024-04-22T01:43:07.720Z,101916.84
2024-04-22T01:45:37.223Z,101916.41
2024-04-22T01:48:04.206Z,101910.88
2024-04-22T01:50:33.807Z,101903.69
2024-04-22T01:53:00.559Z,101915.03
2024-04-22T01:55:30.112Z,101900.44
2024-04-22T01:57:59.670Z,101919.78
2024-04-22T02:00:29.014Z,101919.06
2024-04-22T02:02:55.950Z,101915.63
2024-04-22T02:05:26.351Z,101914.03
2024-04-22T02:07:53.310Z,101923.44
2024-04-22T02:10:24.079Z,101908.09
2024-04-22T02:12:51.479Z,101912.22
2024-04-22T02:15:23.613Z,101902.56
2024-04-22T02:17:51.354Z,101903.47
2024-04-22T02:20:21.078Z,101900.53
2024-04-22T02:22:50.573Z,101906.31
2024-04-22T02:25:17.329Z,101885.31
2024-04-22T02:27:46.970Z,101888.84
2024-04-22T02:30:14.112Z,101898.19
2024-04-22T02:32:46.376Z,101890.47
2024-04-22T02:35:13.416Z,101899.69
2024-04-22T02:37:42.962Z,101890.09
2024-04-22T02:40:10.514Z,101892.75
2024-04-22T02:42:40.160Z,101896.84
2024-04-22T02:45:07.227Z,101898.38
2024-04-22T02:47:36.785Z,101889.19
2024-04-22T02:50:06.644Z,101885.47
2024-04-22T02:52:36.187Z,101876.75
2024-04-22T02:55:02.967Z,101874.28
2024-04-22T02:57:32.538Z,101865.03
2024-04-22T02:59:59.297Z,101866.56
2024-04-22T03:02:28.817Z,101870.78
2024-04-22T03:04:55.561Z,101870.72
2024-04-22T03:07:28.040Z,101866.84
2024-04-22T03:09:55.019Z,101876.03
2024-04-22T03:12:24.499Z,101861.59
2024-04-22T03:14:51.251Z,101862.09
2024-04-22T03:17:20.784Z,101850.13
2024-04-22T03:19:47.626Z,101855.31
2024-04-22T03:22:17.157Z,101852.03
2024-04-22T03:24:46.674Z,101867.28
2024-04-22T03:27:16.641Z,101857.72
2024-04-22T03:29:43.582Z,101852.72
2024-04-22T03:32:13.177Z,101860.00
2024-04-22T03:34:40.255Z,101860.78
2024-04-22T03:37:09.836Z,101845.44
2024-04-22T03:39:39.186Z,101854.94
2024-04-22T03:42:11.378Z,101860.78
2024-04-22T03:44:40.887Z,101860.44
2024-04-22T03:47:26.463Z,101847.63
2024-04-22T03:49:57.441Z,101850.81
2024-04-22T03:52:27.306Z,101855.09
2024-04-22T03:54:56.849Z,101856.44
2024-04-22T03:57:28.824Z,101840.00
2024-04-22T03:59:58.867Z,101843.31
2024-04-22T04:02:25.767Z,101845.00
2024-04-22T04:04:55.446Z,101836.69
2024-04-22T04:07:22.498Z,101843.41
2024-04-22T04:09:51.982Z,101839.25
2024-04-22T04:12:18.751Z,101827.56
2024-04-22T04:14:50.863Z,101841.97
2024-04-22T04:17:17.850Z,101850.66
2024-04-22T04:19:47.432Z,101847.16
2024-04-22T04:22:14.305Z,101844.06
2024-04-22T04:24:43.802Z,101839.09
2024-04-22T04:27:10.582Z,101838.22
2024-04-22T04:29:40.191Z,101848.69
2024-04-22T04:32:12.502Z,101835.00
2024-04-22T04:34:39.598Z,101842.50
2024-04-22T04:37:09.235Z,101853.59
2024-04-22T04:39:36.213Z,101850.06
2024-04-22T04:42:06.451Z,101853.22
2024-04-22T04:44:33.380Z,101861.13
2024-04-22T04:47:02.924Z,101859.03
2024-04-22T04:49:32.350Z,101838.66
2024-04-22T04:52:01.859Z,101842.66
2024-04-22T04:54:28.624Z,101840.19
2024-04-22T04:56:58.089Z,101842.25
2024-04-22T04:59:25.002Z,101850.72
2024-04-22T05:01:54.978Z,101847.97
2024-04-22T05:04:22.063Z,101841.63
2024-04-22T05:06:54.211Z,101856.56
2024-04-22T05:09:21.163Z,101861.63
2024-04-22T05:11:50.965Z,101860.47
2024-04-22T05:14:17.915Z,101847.59
2024-04-22T05:16:47.635Z,101851.56
2024-04-22T05:19:14.961Z,101846.09
2024-04-22T05:21:45.379Z,101865.03
2024-04-22T05:24:15.323Z,101869.59
2024-04-22T05:26:44.828Z,101868.41
2024-04-22T05:29:11.560Z,101865.13
2024-04-22T05:31:41.119Z,101850.63
2024-04-22T05:34:26.356Z,101848.25
2024-04-22T05:36:55.875Z,101854.00
2024-04-22T05:39:27.807Z,101861.84
2024-04-22T05:41:57.321Z,101865.13
2024-04-22T05:44:26.679Z,101851.06
2024-04-22T05:46:56.213Z,101853.00
2024-04-22T05:49:27.203Z,101859.56
2024-04-22T05:51:56.926Z,101862.28
2024-04-22T05:54:29.186Z,101852.28
2024-04-22T05:56:56.090Z,101862.78
2024-04-22T05:59:26.723Z,101850.75
2024-04-22T06:01:53.789Z,101860.75
2024-04-22T06:04:23.620Z,101837.66
2024-04-22T06:06:50.592Z,101849.00
2024-04-22T06:09:23.708Z,101858.44
2024-04-22T06:12:07.771Z,101840.03
2024-04-22T06:14:42.536Z,101852.31
2024-04-22T06:17:12.259Z,101821.72
2024-04-22T06:19:39.413Z,101857.88
2024-04-22T06:22:08.992Z,101824.00
2024-04-22T06:24:35.935Z,101838.75
2024-04-22T06:27:08.395Z,101838.66
2024-04-22T06:29:35.304Z,101840.22
2024-04-22T06:32:04.869Z,101837.25
2024-04-22T06:34:35.330Z,101845.28
2024-04-22T06:37:02.284Z,101850.59
2024-04-22T06:39:31.791Z,101834.09
2024-04-22T06:41:58.708Z,101830.63
2024-04-22T06:44:30.830Z,101840.13
2024-04-22T06:46:58.994Z,101832.66
2024-04-22T06:49:30.129Z,101830.22
2024-04-22T06:51:57.272Z,101835.06
2024-04-22T06:54:27.168Z,101824.31
2024-04-22T06:56:54.069Z,101830.16
2024-04-22T06:59:23.566Z,101839.47
2024-04-22T07:01:55.564Z,101818.59
2024-04-22T07:04:22.731Z,101824.22
2024-04-22T07:06:52.289Z,101839.38
2024-04-22T07:09:19.311Z,101823.38
2024-04-22T07:11:48.825Z,101821.94
2024-04-22T07:14:20.429Z,101823.13
2024-04-22T07:16:59.617Z,101841.19
2024-04-22T07:19:26.753Z,101833.81
2024-04-22T07:21:57.305Z,101839.78
2024-04-22T07:24:26.359Z,101814.56
2024-04-22T07:26:57.827Z,101795.84
2024-04-22T07:29:25.325Z,101829.75
2024-04-22T07:31:55.442Z,101841.50
2024-04-22T07:34:25.719Z,101834.03
2024-04-22T07:37:03.706Z,101808.69
2024-04-22T07:39:30.831Z,101826.31
2024-04-22T07:42:00.361Z,101801.94
2024-04-22T07:44:27.784Z,101824.53
2024-04-22T07:46:57.403Z,101798.28
2024-04-22T07:49:27.023Z,101817.69
2024-04-22T07:51:56.548Z,101833.19
2024-04-22T07:54:24.312Z,101811.25
2024-04-22T07:56:54.344Z,101802.53
2024-04-22T07:59:21.965Z,101808.88
2024-04-22T08:01:52.145Z,101785.84
2024-04-22T08:04:19.584Z,101793.72
2024-04-22T08:06:53.028Z,101809.50
2024-04-22T08:09:21.142Z,101803.22
2024-04-22T08:11:51.604Z,101811.59
2024-04-22T08:14:18.595Z,101809.44
2024-04-22T08:16:48.171Z,101823.38
2024-04-22T08:19:15.123Z,101807.13
2024-04-22T08:21:46.233Z,101830.56
2024-04-22T08:24:15.965Z,101829.16
2024-04-22T08:26:45.481Z,101804.75
2024-04-22T08:29:12.390Z,101810.09
2024-04-22T08:31:44.174Z,101827.09
2024-04-22T08:34:11.978Z,101820.94
2024-04-22T08:36:43.315Z,101815.66
2024-04-22T08:39:11.434Z,101818.25
2024-04-22T08:41:43.671Z,101796.06
2024-04-22T08:44:10.633Z,101798.97
2024-04-22T08:46:40.224Z,101814.56
2024-04-22T08:49:07.894Z,101823.50
2024-04-22T08:51:39.591Z,101816.66
2024-04-22T08:54:06.591Z,101807.44
2024-04-22T08:56:36.095Z,101811.22
2024-04-22T08:59:05.646Z,101792.06
2024-04-22T09:01:35.272Z,101808.56
2024-04-22T09:04:02.345Z,101809.75
2024-04-22T09:06:31.927Z,101808.09
2024-04-22T09:08:58.836Z,101814.78
2024-04-22T09:12:42.785Z,101784.63
2024-04-22T09:15:09.970Z,101800.81
2024-04-22T09:17:39.703Z,101778.59
2024-04-22T09:20:07.692Z,101791.38
2024-04-22T09:22:37.799Z,101805.03
2024-04-22T09:25:05.245Z,101800.31
2024-04-22T09:27:35.565Z,101773.50
2024-04-22T09:30:06.127Z,101798.94
2024-04-22T09:32:36.040Z,101781.84
2024-04-22T09:35:14.322Z,101771.78
2024-04-22T09:37:48.320Z,101809.22
2024-04-22T09:40:18.091Z,101795.56
2024-04-22T09:42:48.902Z,101790.56
2024-04-22T09:45:18.741Z,101808.03
2024-04-22T09:47:49.466Z,101775.94
2024-04-22T09:50:17.554Z,101769.31
2024-04-22T09:52:48.048Z,101783.13
2024-04-22T09:55:15.789Z,101766.13
2024-04-22T09:57:45.878Z,101763.19
2024-04-22T10:00:13.233Z,101785.25
2024-04-22T10:02:45.651Z,101773.13
2024-04-22T10:05:14.883Z,101780.97
2024-04-22T10:07:44.649Z,101790.56
2024-04-22T10:10:11.903Z,101759.34
2024-04-22T10:12:41.496Z,101764.75
2024-04-22T10:15:12.568Z,101765.03
2024-04-22T10:17:46.468Z,101767.50
2024-04-22T10:20:13.895Z,101757.38
2024-04-22T10:22:43.808Z,101763.97
2024-04-22T10:25:13.146Z,101766.91
2024-04-22T10:27:42.571Z,101770.25
2024-04-22T10:30:09.949Z,101782.78
2024-04-22T10:32:39.615Z,101773.13
2024-04-22T10:35:09.238Z,101760.44
2024-04-22T10:37:38.746Z,101756.81
2024-04-22T10:40:06.897Z,101756.41
2024-04-22T10:42:36.937Z,101759.19
2024-04-22T10:45:06.892Z,101750.72
2024-04-22T10:47:34.087Z,101749.34
2024-04-22T10:50:03.709Z,101735.16
2024-04-22T10:52:33.322Z,101734.00
2024-04-22T10:55:02.882Z,101745.25
2024-04-22T10:57:29.793Z,101741.44
2024-04-22T10:59:59.358Z,101740.28
2024-04-22T11:02:27.749Z,101756.38
2024-04-22T11:04:57.743Z,101749.88
2024-04-22T11:07:27.421Z,101762.31
2024-04-22T11:10:00.143Z,101737.81
2024-04-22T11:12:28.772Z,101744.16
2024-04-22T11:15:00.539Z,101738.63
2024-04-22T11:17:27.511Z,101741.44
2024-04-22T11:19:57.095Z,101730.31
2024-04-22T11:22:24.075Z,101748.97
2024-04-22T11:24:53.652Z,101726.78
2024-04-22T11:27:23.198Z,101748.78
2024-04-22T11:29:52.744Z,101730.69
2024-04-22T11:32:20.196Z,101735.75
2024-04-22T11:34:50.254Z,101717.81
2024-04-22T11:37:17.220Z,101737.19
2024-04-22T11:39:46.744Z,101751.91
2024-04-22T11:42:13.666Z,101706.13
2024-04-22T11:44:45.804Z,101723.88
2024-04-22T11:47:13.816Z,101735.88
2024-04-22T11:49:43.413Z,101747.41
2024-04-22T11:52:10.564Z,101735.97
2024-04-22T11:54:40.064Z,101739.47
2024-04-22T11:57:07.031Z,101752.94
2024-04-22T11:59:36.541Z,101750.16
2024-04-22T12:02:06.140Z,101730.16
2024-04-22T12:04:35.807Z,101709.22
2024-04-22T12:07:02.904Z,101713.34
2024-04-22T12:09:32.963Z,101743.50
2024-04-22T12:11:59.899Z,101746.88
2024-04-22T12:14:29.390Z,101737.88
2024-04-22T12:16:56.503Z,101724.59
2024-04-22T12:19:28.683Z,101742.44
2024-04-22T12:21:55.628Z,101724.00
2024-04-22T12:24:25.188Z,101730.22
2024-04-22T12:26:52.122Z,101704.75
2024-04-22T12:29:21.595Z,101718.97
2024-04-22T12:31:48.658Z,101710.53
2024-04-22T12:34:18.384Z,101712.94
2024-04-22T12:36:48.032Z,101730.28
2024-04-22T12:39:17.585Z,101727.53
2024-04-22T12:41:44.533Z,101709.91
2024-04-22T12:44:14.080Z,101699.69
2024-04-22T12:47:02.321Z,101714.94
2024-04-22T12:49:50.289Z,101698.19
2024-04-22T12:52:24.295Z,101700.16
2024-04-22T12:54:53.829Z,101694.91
2024-04-22T12:57:23.324Z,101703.53
2024-04-22T12:59:55.451Z,101698.56
2024-04-22T13:02:25.138Z,101681.31
2024-04-22T13:04:54.722Z,101711.22
2024-04-22T13:07:26.928Z,101711.66
2024-04-22T13:09:56.808Z,101693.19
2024-04-22T13:12:26.727Z,101720.47
2024-04-22T13:14:56.375Z,101718.59
2024-04-22T13:17:25.951Z,101721.13
2024-04-22T13:19:55.696Z,101692.78
2024-04-22T13:22:25.333Z,101703.06
2024-04-22T13:24:54.959Z,101717.69
2024-04-22T13:27:21.888Z,101719.75
2024-04-22T13:29:51.474Z,101694.50
2024-04-22T13:32:21.262Z,101699.13
2024-04-22T13:34:50.944Z,101706.59
2024-04-22T13:37:17.949Z,101702.34
2024-04-22T13:39:52.064Z,101718.97
2024-04-22T13:42:21.623Z,101712.09
2024-04-22T13:44:48.690Z,101708.69
2024-04-22T13:47:18.229Z,101711.34
2024-04-22T13:49:45.240Z,101708.88
2024-04-22T13:52:15.384Z,101716.81
2024-04-22T13:54:42.311Z,101699.16
2024-04-22T13:57:14.413Z,101669.03
2024-04-22T13:59:41.360Z,101682.88
2024-04-22T14:02:10.950Z,101662.03
2024-04-22T14:04:37.932Z,101661.25
2024-04-22T14:07:08.032Z,101650.25
2024-04-22T14:09:34.952Z,101657.81
2024-04-22T14:12:04.505Z,101668.84
2024-04-22T14:14:34.024Z,101681.38
2024-04-22T14:17:06.443Z,101665.84
2024-04-22T14:19:35.126Z,101653.56
2024-04-22T14:22:04.957Z,101644.00
2024-04-22T14:24:31.908Z,101655.50
2024-04-22T14:27:01.465Z,101626.47
2024-04-22T14:29:28.880Z,101655.00
2024-04-22T14:32:00.957Z,101653.69
2024-04-22T14:34:27.922Z,101632.59
2024-04-22T14:36:57.435Z,101639.06
2024-04-22T14:39:24.338Z,101636.44
2024-04-22T14:41:53.840Z,101627.47
2024-04-22T14:44:20.761Z,101629.72
2024-04-22T14:46:50.372Z,101606.25
2024-04-22T14:49:19.984Z,101610.31
2024-04-22T14:51:49.510Z,101606.28
2024-04-22T14:54:16.412Z,101596.19
2024-04-22T14:56:46.048Z,101611.66
2024-04-22T14:59:13.563Z,101624.44
2024-04-22T15:01:43.192Z,101606.72
2024-04-22T15:04:10.207Z,101623.03
2024-04-22T15:06:44.751Z,101617.63
2024-04-22T15:09:11.807Z,101587.13
2024-04-22T15:11:41.346Z,101581.16
2024-04-22T15:14:08.260Z,101591.44
2024-04-22T15:16:37.843Z,101606.75
2024-04-22T15:19:04.768Z,101597.22
2024-04-22T15:21:34.281Z,101605.25
2024-04-22T15:24:03.909Z,101588.38
2024-04-22T15:26:33.461Z,101580.63
2024-04-22T15:29:00.471Z,101596.41
2024-04-22T15:31:30.089Z,101594.16
2024-04-22T15:33:57.026Z,101594.06
2024-04-22T15:36:26.623Z,101561.88
2024-04-22T15:38:53.603Z,101568.50
2024-04-22T15:41:25.862Z,101569.84
2024-04-22T15:43:52.786Z,101585.13
2024-04-22T15:46:22.373Z,101579.84
2024-04-22T15:48:49.357Z,101588.25
2024-04-22T15:51:18.877Z,101565.44
2024-04-22T15:53:45.805Z,101582.03
2024-04-22T15:56:16.341Z,101550.50
2024-04-22T15:58:46.010Z,101565.06
2024-04-22T16:01:15.562Z,101576.69
2024-04-22T16:03:42.513Z,101588.06
2024-04-22T16:06:12.292Z,101584.63
2024-04-22T16:08:39.221Z,101560.00
2024-04-22T16:11:08.866Z,101566.25
2024-04-22T16:13:35.990Z,101561.03
2024-04-22T16:16:08.643Z,101561.22
2024-04-22T16:18:35.644Z,101575.47
2024-04-22T16:21:15.185Z,101575.00
2024-04-22T16:23:44.111Z,101582.34
2024-04-22T16:26:13.886Z,101557.22
2024-04-22T16:28:40.817Z,101547.09
2024-04-22T16:31:12.916Z,101555.78
2024-04-22T16:33:39.902Z,101555.44
2024-04-22T16:36:09.870Z,101554.97
2024-04-22T16:38:36.783Z,101559.59
2024-04-22T16:41:08.665Z,101561.81
2024-04-22T16:43:36.854Z,101547.09
2024-04-22T16:46:06.559Z,101548.09
2024-04-22T16:48:36.215Z,101567.66
2024-04-22T16:51:05.868Z,101549.09
2024-04-22T16:53:32.787Z,101549.22
2024-04-22T16:56:02.338Z,101568.63
2024-04-22T16:58:32.543Z,101559.09
2024-04-22T17:01:02.232Z,101542.34
2024-04-22T17:03:29.251Z,101558.81
2024-04-22T17:06:01.442Z,101547.47
2024-04-22T17:08:28.441Z,101569.19
2024-04-22T17:10:58.025Z,101573.84
2024-04-22T17:13:24.978Z,101570.94
2024-04-22T17:15:54.805Z,101568.91
2024-04-22T17:18:21.776Z,101561.34
2024-04-22T17:20:55.714Z,101559.34
2024-04-22T17:23:28.090Z,101561.81
2024-04-22T17:25:57.670Z,101559.75
2024-04-22T17:28:24.660Z,101568.09
2024-04-22T17:30:55.215Z,101558.69
2024-04-22T17:33:22.185Z,101581.47
2024-04-22T17:35:51.868Z,101575.78
2024-04-22T17:38:23.120Z,101566.63
2024-04-22T17:40:58.664Z,101571.13
2024-04-22T17:43:25.695Z,101573.25
2024-04-22T17:46:03.344Z,101565.56
2024-04-22T17:48:31.170Z,101559.84
2024-04-22T17:51:00.944Z,101577.72
2024-04-22T17:53:28.543Z,101572.25
2024-04-22T17:56:00.753Z,101570.81
2024-04-22T17:58:27.749Z,101577.88
2024-04-22T18:00:57.376Z,101576.63
2024-04-22T18:03:24.379Z,101566.75
2024-04-22T18:05:53.936Z,101567.38
2024-04-22T18:08:20.852Z,101580.19
2024-04-22T18:10:51.430Z,101565.06
2024-04-22T18:13:21.058Z,101592.78
2024-04-22T18:15:50.554Z,101574.53
2024-04-22T18:18:17.491Z,101584.78
2024-04-22T18:20:50.244Z,101577.31
2024-04-22T18:23:17.212Z,101581.66
2024-04-22T18:25:46.851Z,101582.31
2024-04-22T18:28:13.834Z,101585.84
2024-04-22T18:30:51.287Z,101583.91
2024-04-22T18:33:21.791Z,101581.38
2024-04-22T18:35:56.359Z,101595.25
2024-04-22T18:38:23.811Z,101602.88
2024-04-22T18:40:53.678Z,101585.91
2024-04-22T18:43:23.272Z,101606.38
2024-04-22T18:45:52.865Z,101596.63
2024-04-22T18:48:22.449Z,101602.06
2024-04-22T18:50:52.410Z,101604.25
2024-04-22T18:53:22.174Z,101617.00
2024-04-22T18:55:49.015Z,101599.44
2024-04-22T18:58:18.607Z,101614.66
2024-04-22T19:00:45.563Z,101618.72
2024-04-22T19:03:17.712Z,101603.16
2024-04-22T19:05:44.690Z,101620.09
2024-04-22T19:08:14.592Z,101609.69
2024-04-22T19:10:41.518Z,101616.25
2024-04-22T19:13:11.041Z,101608.16
2024-04-22T19:15:37.787Z,101621.66
2024-04-22T19:18:07.524Z,101614.03
2024-04-22T19:20:37.109Z,101608.72
2024-04-22T19:23:07.448Z,101623.72
2024-04-22T19:25:39.445Z,101615.53
2024-04-22T19:28:09.631Z,101611.50
2024-04-22T19:30:38.827Z,101622.78
2024-04-22T19:33:08.911Z,101617.13
2024-04-22T19:35:38.536Z,101629.69
2024-04-22T19:38:08.174Z,101612.72
2024-04-22T19:40:37.596Z,101620.22
2024-04-22T19:43:07.452Z,101625.38
2024-04-22T19:45:34.508Z,101624.00
2024-04-22T19:48:04.862Z,101634.09
2024-04-22T19:50:31.853Z,101635.16
2024-04-22T19:53:03.955Z,101642.84
2024-04-22T19:55:30.908Z,101643.09
2024-04-22T19:58:00.556Z,101647.81
2024-04-22T20:00:27.458Z,101647.78
2024-04-22T20:02:57.055Z,101649.53
2024-04-22T20:05:24.129Z,101657.75
2024-04-22T20:07:53.723Z,101657.50
2024-04-22T20:10:23.513Z,101660.78
2024-04-22T20:12:53.308Z,101660.88
2024-04-22T20:15:28.804Z,101655.91
2024-04-22T20:18:16.164Z,101644.34
2024-04-22T20:20:43.577Z,101661.25
2024-04-22T20:23:13.091Z,101637.69
2024-04-22T20:25:42.748Z,101657.38
2024-04-22T20:28:12.267Z,101655.66
2024-04-22T20:30:39.014Z,101653.09
2024-04-22T20:33:08.590Z,101643.00
2024-04-22T20:35:39.412Z,101639.56
2024-04-22T20:38:09.626Z,101651.47
2024-04-22T20:40:36.425Z,101653.13
2024-04-22T20:43:08.571Z,101659.91
2024-04-22T20:45:35.540Z,101649.75
2024-04-22T20:48:05.108Z,101646.56
2024-04-22T20:50:31.949Z,101655.09
2024-04-22T20:53:01.515Z,101652.47
2024-04-22T20:55:28.343Z,101661.06
2024-04-22T20:57:57.846Z,101650.22
2024-04-22T21:00:30.052Z,101654.56
2024-04-22T21:02:57.047Z,101655.72
2024-04-22T21:05:26.570Z,101657.47
2024-04-22T21:07:53.417Z,101655.75
2024-04-22T21:10:23.006Z,101649.78
2024-04-22T21:12:49.751Z,101657.56
2024-04-22T21:15:19.294Z,101656.91
2024-04-22T21:17:48.739Z,101674.00
2024-04-22T21:20:18.325Z,101666.16
2024-04-22T21:22:45.226Z,101655.75
2024-04-22T21:25:14.762Z,101665.53
2024-04-22T21:27:43.279Z,101658.66
2024-04-22T21:30:13.589Z,101654.38
2024-04-22T21:32:40.547Z,101658.41
2024-04-22T21:35:12.829Z,101659.31
2024-04-22T21:37:39.926Z,101650.72
2024-04-22T21:40:10.175Z,101655.97
2024-04-22T21:42:37.102Z,101644.25
2024-04-22T21:45:07.138Z,101650.88
2024-04-22T21:47:34.106Z,101645.75
2024-04-22T21:50:04.075Z,101651.03
2024-04-22T21:52:33.704Z,101647.69
2024-04-22T21:55:03.093Z,101649.47
2024-04-22T21:58:07.898Z,101649.50
2024-04-22T22:01:15.090Z,101655.56
2024-04-22T22:04:19.642Z,101658.06
2024-04-22T22:07:17.172Z,101660.91
2024-04-22T22:09:47.826Z,101662.69
2024-04-22T22:12:21.283Z,101658.44
2024-04-22T22:14:50.517Z,101651.56
2024-04-22T22:17:21.046Z,101668.75
2024-04-22T22:19:49.988Z,101668.59
2024-04-22T22:22:20.025Z,101649.78
2024-04-22T22:24:49.547Z,101656.72
2024-04-22T22:27:19.713Z,101667.06
2024-04-22T22:29:47.726Z,101654.47
2024-04-22T22:32:17.320Z,101671.53
2024-04-22T22:34:44.306Z,101658.91
2024-04-22T22:37:13.798Z,101654.63
2024-04-22T22:39:40.694Z,101663.09
2024-04-22T22:42:12.797Z,101658.88
2024-04-22T22:44:39.708Z,101663.78
2024-04-22T22:47:10.152Z,101664.56
2024-04-22T22:49:37.224Z,101665.41
2024-04-22T22:52:07.208Z,101661.97
2024-04-22T22:54:34.105Z,101666.28
2024-04-22T22:57:04.189Z,101655.34
2024-04-22T22:59:33.717Z,101648.56
2024-04-22T23:02:03.266Z,101644.44
2024-04-22T23:04:30.271Z,101645.25
2024-04-22T23:07:05.270Z,101651.84
2024-04-22T23:09:32.184Z,101648.31
2024-04-22T23:12:01.652Z,101660.22
2024-04-22T23:14:28.538Z,101646.66
2024-04-22T23:17:00.813Z,101644.94
2024-04-22T23:19:27.814Z,101652.78
2024-04-22T23:21:57.420Z,101648.34
2024-04-22T23:24:24.362Z,101658.72
2024-04-22T23:26:56.068Z,101657.09
2024-04-22T23:29:23.080Z,101646.06
2024-04-22T23:31:52.829Z,101646.91
2024-04-22T23:34:22.432Z,101654.69
2024-04-22T23:36:52.610Z,101644.97
2024-04-22T23:39:19.645Z,101636.44
2024-04-22T23:41:49.332Z,101645.97
2024-04-22T23:44:16.352Z,101629.72
2024-04-22T23:46:55.948Z,101645.16
2024-04-22T23:49:26.490Z,101643.44
2024-04-22T23:51:56.320Z,101637.53
2024-04-22T23:54:23.271Z,101645.28
2024-04-22T23:57:00.546Z,101634.88
2024-04-22T23:59:27.614Z,101638.00
